createdAt,value
2024-05-09T00:01:49.838Z,0.75
2024-05-09T00:04:20.721Z,0.80
2024-05-09T00:06:50.220Z,0.65
2024-05-09T00:09:22.218Z,0.47
2024-05-09T00:11:51.828Z,0.52
2024-05-09T00:14:21.389Z,0.80
2024-05-09T00:16:51.070Z,1.00
2024-05-09T00:19:20.589Z,0.88
2024-05-09T00:21:50.092Z,0.70
2024-05-09T00:24:22.095Z,0.63
2024-05-09T00:26:51.479Z,0.68
2024-05-09T00:29:21.156Z,0.85
2024-05-09T00:31:50.885Z,0.22
2024-05-09T00:34:20.522Z,0.70
2024-05-09T00:36:50.060Z,0.57
2024-05-09T00:39:21.963Z,0.68
2024-05-09T00:41:51.368Z,0.70
2024-05-09T00:44:20.784Z,0.73
2024-05-09T00:46:54.530Z,0.70
2024-05-09T00:49:24.682Z,0.70
2024-05-09T00:51:54.183Z,0.70
2024-05-09T00:54:26.573Z,0.68
2024-05-09T00:56:56.120Z,1.30
2024-05-09T00:59:26.465Z,0.77
2024-05-09T01:01:56.235Z,0.65
2024-05-09T01:04:25.708Z,0.13
2024-05-09T01:06:55.114Z,0.70
2024-05-09T01:09:27.080Z,0.70
2024-05-09T01:12:01.606Z,0.65
2024-05-09T01:14:33.533Z,0.55
2024-05-09T01:17:06.220Z,0.75
2024-05-09T01:19:36.579Z,0.70
2024-05-09T01:22:08.202Z,0.80
2024-05-09T01:24:54.003Z,0.65
2024-05-09T01:27:24.508Z,0.68
2024-05-09T01:29:53.899Z,0.85
2024-05-09T01:32:23.418Z,0.95
2024-05-09T01:34:52.875Z,0.70
2024-05-09T01:37:22.307Z,0.57
2024-05-09T01:39:54.280Z,0.95
2024-05-09T01:42:23.714Z,0.90
2024-05-09T01:44:53.589Z,0.40
2024-05-09T01:50:55.822Z,0.50
2024-05-09T01:53:25.180Z,0.90
2024-05-09T01:53:30.648Z,0.73
2024-05-09T01:55:59.390Z,0.82
2024-05-09T01:58:32.397Z,0.75
2024-05-09T02:01:01.850Z,0.60
2024-05-09T02:03:31.617Z,0.17
2024-05-09T02:06:03.790Z,0.68
2024-05-09T02:08:33.403Z,0.75
2024-05-09T02:11:05.595Z,0.77
2024-05-09T02:13:34.928Z,0.80
2024-05-09T02:16:04.349Z,0.77
2024-05-09T02:18:33.978Z,0.68
2024-05-09T02:21:03.683Z,0.55
2024-05-09T02:23:33.354Z,0.70
2024-05-09T02:26:05.798Z,0.60
2024-05-09T02:28:35.495Z,0.98
2024-05-09T02:31:05.744Z,0.77
2024-05-09T02:33:35.627Z,0.80
2024-05-09T02:36:07.094Z,0.50
2024-05-09T02:38:34.072Z,0.73
2024-05-09T02:41:07.848Z,0.70
2024-05-09T02:43:34.792Z,0.77
2024-05-09T02:46:04.197Z,0.85
2024-05-09T02:48:31.075Z,0.80
2024-05-09T02:51:00.528Z,0.80
2024-05-09T02:53:27.348Z,0.80
2024-05-09T02:55:57.501Z,0.82
2024-05-09T02:58:26.886Z,0.70
2024-05-09T03:00:56.332Z,0.68
2024-05-09T03:03:23.368Z,0.75
2024-05-09T03:05:55.932Z,0.65
2024-05-09T03:08:25.113Z,0.70
2024-05-09T03:10:54.481Z,0.73
2024-05-09T03:13:21.548Z,0.60
2024-05-09T03:15:53.455Z,0.98
2024-05-09T03:18:22.286Z,0.90
2024-05-09T03:20:54.015Z,0.70
2024-05-09T03:23:20.941Z,0.73
2024-05-09T03:25:50.614Z,0.65
2024-05-09T03:28:18.071Z,0.73
2024-05-09T03:30:51.262Z,1.23
2024-05-09T03:33:24.997Z,0.90
2024-05-09T03:35:52.052Z,0.80
2024-05-09T03:38:21.626Z,0.80
2024-05-09T03:40:51.864Z,0.52
2024-05-09T03:43:22.534Z,1.00
2024-05-09T03:45:53.009Z,0.60
2024-05-09T03:48:22.780Z,0.68
2024-05-09T03:50:52.281Z,0.85
2024-05-09T03:53:20.401Z,0.73
2024-05-09T03:55:49.936Z,0.70
2024-05-09T03:58:16.744Z,1.13
2024-05-09T04:00:46.330Z,0.70
2024-05-09T04:03:13.721Z,0.80
2024-05-09T04:05:48.550Z,1.20
2024-05-09T04:08:15.908Z,0.75
2024-05-09T04:10:45.698Z,0.90
2024-05-09T04:13:12.652Z,0.95
2024-05-09T04:15:42.024Z,0.93
2024-05-09T04:18:09.220Z,0.68
2024-05-09T04:20:40.716Z,1.02
2024-05-09T04:23:12.739Z,0.60
2024-05-09T04:25:45.375Z,0.90
2024-05-09T04:30:42.750Z,0.65
2024-05-09T04:33:13.597Z,0.80
2024-05-09T04:35:45.133Z,0.80
2024-05-09T04:38:15.788Z,1.08
2024-05-09T04:40:45.681Z,0.70
2024-05-09T04:43:16.176Z,1.08
2024-05-09T04:45:45.839Z,0.75
2024-05-09T04:48:13.106Z,0.75
2024-05-09T04:50:43.032Z,0.80
2024-05-09T04:53:11.212Z,0.75
2024-05-09T04:55:43.907Z,0.75
2024-05-09T04:58:11.566Z,1.00
2024-05-09T05:00:41.728Z,0.75
2024-05-09T05:03:12.719Z,1.05
2024-05-09T05:05:45.688Z,0.80
2024-05-09T05:08:13.781Z,0.88
2024-05-09T05:10:47.202Z,0.55
2024-05-09T05:13:20.638Z,0.68
2024-05-09T05:15:52.509Z,0.70
2024-05-09T05:18:19.780Z,0.68
2024-05-09T05:20:49.732Z,0.80
2024-05-09T05:23:19.077Z,1.08
2024-05-09T05:25:52.458Z,0.80
2024-05-09T05:28:19.953Z,0.73
2024-05-09T05:30:49.606Z,0.70
2024-05-09T05:33:18.737Z,0.98
2024-05-09T05:35:48.854Z,0.80
2024-05-09T05:38:15.841Z,0.60
2024-05-09T05:40:45.599Z,1.02
2024-05-09T05:43:23.142Z,1.23
2024-05-09T05:45:53.285Z,0.77
2024-05-09T05:48:20.240Z,0.80
2024-05-09T05:50:49.660Z,0.55
2024-05-09T05:53:16.602Z,0.82
2024-05-09T05:55:46.011Z,0.65
2024-05-09T05:58:14.398Z,0.70
2024-05-09T06:00:46.876Z,0.80
2024-05-09T06:03:14.324Z,0.90
2024-05-09T06:05:47.235Z,0.85
2024-05-09T06:08:14.262Z,1.00
2024-05-09T06:10:44.110Z,0.50
2024-05-09T06:13:13.764Z,0.60
2024-05-09T06:15:46.500Z,0.63
2024-05-09T06:18:14.279Z,0.68
2024-05-09T06:20:44.600Z,0.60
2024-05-09T06:23:12.178Z,0.60
2024-05-09T06:25:42.409Z,0.82
2024-05-09T06:28:09.446Z,0.90
2024-05-09T06:30:42.476Z,0.68
2024-05-09T06:33:14.788Z,0.57
2024-05-09T06:35:45.836Z,0.88
2024-05-09T06:38:12.991Z,0.82
2024-05-09T06:40:44.083Z,0.50
2024-05-09T06:43:12.137Z,0.60
2024-05-09T06:45:41.488Z,0.73
2024-05-09T06:48:09.469Z,0.90
2024-05-09T06:50:41.946Z,0.60
2024-05-09T06:53:09.211Z,0.68
2024-05-09T06:55:39.140Z,0.70
2024-05-09T06:58:06.987Z,0.65
2024-05-09T07:00:39.775Z,0.80
2024-05-09T07:03:08.651Z,0.63
2024-05-09T07:05:38.384Z,0.75
2024-05-09T07:08:08.062Z,0.70
2024-05-09T07:10:38.092Z,0.70
2024-05-09T07:13:08.412Z,0.65
2024-05-09T07:15:37.779Z,0.52
2024-05-09T07:18:09.852Z,0.50
2024-05-09T07:20:39.443Z,0.85
2024-05-09T07:23:11.347Z,0.68
2024-05-09T07:25:40.923Z,0.70
2024-05-09T07:28:10.881Z,0.57
2024-05-09T07:30:40.434Z,0.80
2024-05-09T07:33:07.413Z,0.82
2024-05-09T07:35:36.912Z,0.50
2024-05-09T07:38:03.993Z,0.20
2024-05-09T07:40:37.127Z,0.75
2024-05-09T07:43:04.515Z,0.52
2024-05-09T07:53:36.648Z,0.50
2024-05-09T07:56:00.581Z,0.52
2024-05-09T07:58:27.925Z,0.45
2024-05-09T08:00:57.659Z,0.55
2024-05-09T08:03:28.674Z,0.43
2024-05-09T08:05:59.891Z,0.57
2024-05-09T08:08:26.919Z,0.60
2024-05-09T08:10:57.166Z,0.70
2024-05-09T08:13:27.592Z,0.60
2024-05-09T08:15:58.527Z,0.60
2024-05-09T08:18:25.476Z,0.60
2024-05-09T08:20:56.393Z,0.70
2024-05-09T08:23:24.427Z,0.60
2024-05-09T08:25:55.729Z,0.65
2024-05-09T08:28:27.738Z,0.60
2024-05-09T08:30:57.500Z,0.60
2024-05-09T08:33:27.627Z,0.43
2024-05-09T08:35:57.080Z,0.52
2024-05-09T08:38:23.879Z,0.43
2024-05-09T08:40:54.277Z,0.43
2024-05-09T08:43:22.496Z,0.60
2024-05-09T08:45:54.661Z,0.80
2024-05-09T08:48:23.136Z,0.57
2024-05-09T08:50:54.889Z,0.47
2024-05-09T08:53:22.655Z,0.40
2024-05-09T08:55:53.893Z,0.47
2024-05-09T08:58:21.104Z,0.52
2024-05-09T09:01:02.895Z,0.50
2024-05-09T09:03:33.682Z,0.90
2024-05-09T09:06:06.537Z,0.40
2024-05-09T09:08:33.576Z,0.60
2024-05-09T09:11:03.793Z,0.47
2024-05-09T09:13:31.200Z,0.57
2024-05-09T09:16:05.022Z,0.40
2024-05-09T09:18:33.038Z,0.60
2024-05-09T09:21:03.576Z,0.40
2024-05-09T09:23:30.780Z,0.30
2024-05-09T09:26:01.537Z,0.50
2024-05-09T09:28:29.525Z,0.45
2024-05-09T09:31:06.452Z,0.40
2024-05-09T09:33:35.916Z,0.35
2024-05-09T09:36:08.970Z,0.40
2024-05-09T09:38:37.654Z,0.43
2024-05-09T09:41:10.759Z,0.40
2024-05-09T09:43:37.651Z,0.40
2024-05-09T09:46:12.746Z,0.40
2024-05-09T09:48:40.716Z,0.40
2024-05-09T09:51:11.136Z,0.50
2024-05-09T09:53:38.837Z,0.50
2024-05-09T09:56:10.532Z,0.38
2024-05-09T09:58:38.885Z,0.50
2024-05-09T10:01:10.917Z,0.40
2024-05-09T10:03:37.997Z,0.40
2024-05-09T10:06:08.311Z,0.50
2024-05-09T10:08:35.815Z,0.35
2024-05-09T10:11:06.938Z,0.30
2024-05-09T10:13:34.753Z,0.40
2024-05-09T10:16:13.251Z,0.50
2024-05-09T10:18:41.075Z,0.63
2024-05-09T10:21:20.809Z,0.50
2024-05-09T10:23:57.665Z,0.30
2024-05-09T10:26:33.171Z,0.75
2024-05-09T10:29:02.507Z,0.40
2024-05-09T10:31:35.076Z,0.40
2024-05-09T10:34:02.843Z,0.40
2024-05-09T10:36:32.519Z,0.30
2024-05-09T10:38:59.815Z,0.40
2024-05-09T10:41:29.284Z,0.38
2024-05-09T10:43:56.384Z,0.60
2024-05-09T10:46:25.734Z,0.40
2024-05-09T10:48:55.214Z,0.40
2024-05-09T10:51:24.579Z,0.38
2024-05-09T10:53:52.684Z,0.35
2024-05-09T10:56:22.141Z,0.40
2024-05-09T10:58:51.582Z,0.30
2024-05-09T11:01:21.147Z,0.30
2024-05-09T11:03:48.473Z,0.40
2024-05-09T11:06:21.080Z,0.32
2024-05-09T11:08:48.014Z,0.20
2024-05-09T11:11:17.837Z,0.35
2024-05-09T11:13:44.666Z,0.20
2024-05-09T11:16:20.213Z,0.30
2024-05-09T11:18:55.367Z,0.50
2024-05-09T11:21:27.724Z,0.32
2024-05-09T11:26:25.289Z,0.30
2024-05-09T11:28:52.251Z,0.25
2024-05-09T11:31:21.993Z,0.35
2024-05-09T11:33:49.165Z,0.40
2024-05-09T11:36:19.173Z,0.35
2024-05-09T11:38:48.624Z,0.32
2024-05-09T11:41:19.891Z,0.30
2024-05-09T11:43:46.656Z,0.20
2024-05-09T11:46:16.171Z,0.40
2024-05-09T11:48:43.204Z,0.32
2024-05-09T11:51:12.725Z,0.40
2024-05-09T11:53:39.475Z,0.40
2024-05-09T11:56:12.035Z,0.40
2024-05-09T11:58:39.576Z,0.43
2024-05-09T12:01:08.983Z,0.50
2024-05-09T12:03:37.850Z,0.30
2024-05-09T12:06:07.645Z,0.25
2024-05-09T12:08:34.646Z,0.30
2024-05-09T12:11:04.046Z,0.30
2024-05-09T12:13:36.138Z,0.20
2024-05-09T12:18:34.119Z,0.40
2024-05-09T12:21:03.528Z,0.30
2024-05-09T12:23:30.232Z,0.32
2024-05-09T12:25:59.563Z,0.10
2024-05-09T12:28:26.566Z,0.30
2024-05-09T12:30:58.545Z,0.35
2024-05-09T12:33:25.415Z,0.20
2024-05-09T12:35:55.522Z,0.30
2024-05-09T12:38:22.257Z,0.30
2024-05-09T12:40:51.802Z,0.22
2024-05-09T12:43:18.618Z,0.25
2024-05-09T12:45:48.131Z,0.30
2024-05-09T12:48:20.168Z,0.30
2024-05-09T12:53:16.769Z,0.32
2024-05-09T12:55:53.031Z,0.20
2024-05-09T12:58:26.470Z,0.08
2024-05-09T13:00:53.404Z,0.30
2024-05-09T13:03:25.908Z,0.20
2024-05-09T13:08:23.086Z,0.28
2024-05-09T13:10:50.347Z,0.03
2024-05-09T13:13:20.097Z,0.28
2024-05-09T13:15:47.162Z,0.28
2024-05-09T13:18:16.690Z,0.20
2024-05-09T13:20:47.419Z,0.40
2024-05-09T13:23:16.762Z,0.30
2024-05-09T13:25:43.569Z,0.22
2024-05-09T13:28:13.244Z,0.20
2024-05-09T13:30:41.966Z,0.25
2024-05-09T13:33:13.015Z,0.35
2024-05-09T13:35:45.537Z,0.35
2024-05-09T13:38:22.357Z,0.30
2024-05-09T13:40:50.231Z,0.40
2024-05-09T13:43:22.012Z,0.22
2024-05-09T13:45:49.333Z,0.43
2024-05-09T13:48:19.736Z,0.40
2024-05-09T13:50:46.873Z,0.30
2024-05-09T13:53:16.350Z,0.40
2024-05-09T13:55:45.779Z,0.38
2024-05-09T13:58:15.385Z,0.20
2024-05-09T14:00:47.168Z,0.30
2024-05-09T14:03:20.058Z,0.32
2024-05-09T14:05:48.310Z,0.40
2024-05-09T14:08:19.598Z,0.50
2024-05-09T14:10:49.624Z,0.40
2024-05-09T14:13:19.481Z,0.40
2024-05-09T14:15:46.676Z,0.38
2024-05-09T14:18:16.221Z,0.20
2024-05-09T14:20:43.367Z,0.20
2024-05-09T14:23:13.133Z,0.10
2024-05-09T14:25:42.459Z,0.30
2024-05-09T14:28:15.568Z,0.40
2024-05-09T14:33:12.706Z,0.38
2024-05-09T14:35:39.582Z,0.30
2024-05-09T14:38:09.969Z,0.40
2024-05-09T14:40:42.042Z,0.10
2024-05-09T14:43:16.612Z,0.40
2024-05-09T14:45:44.124Z,0.30
2024-05-09T14:48:14.642Z,0.50
2024-05-09T14:50:42.421Z,0.40
2024-05-09T14:53:13.615Z,0.28
2024-05-09T14:55:42.954Z,0.50
2024-05-09T14:58:15.998Z,0.20
2024-05-09T15:00:48.474Z,0.40
2024-05-09T15:03:21.658Z,0.40
2024-05-09T15:05:49.322Z,0.28
2024-05-09T15:08:19.817Z,0.28
2024-05-09T15:10:47.310Z,0.25
2024-05-09T15:13:19.592Z,0.30
2024-05-09T15:15:46.905Z,0.30
2024-05-09T15:18:16.652Z,0.20
2024-05-09T15:20:44.785Z,0.10
2024-05-09T15:23:14.459Z,0.30
2024-05-09T15:25:41.214Z,0.50
2024-05-09T15:28:10.687Z,0.40
2024-05-09T15:30:42.052Z,0.20
2024-05-09T15:33:13.191Z,0.30
2024-05-09T15:35:41.641Z,0.32
2024-05-09T15:38:11.569Z,0.30
2024-05-09T15:40:40.532Z,0.30
2024-05-09T15:43:11.778Z,0.32
2024-05-09T15:45:41.709Z,0.30
2024-05-09T15:48:11.980Z,0.30
2024-05-09T15:50:41.455Z,0.40
2024-05-09T15:53:13.144Z,0.38
2024-05-09T15:55:41.330Z,0.10
2024-05-09T15:58:11.066Z,0.50
2024-05-09T16:00:41.628Z,0.35
2024-05-09T16:03:16.039Z,0.30
2024-05-09T16:05:43.900Z,0.30
2024-05-09T16:08:13.612Z,0.38
2024-05-09T16:10:44.239Z,0.35
2024-05-09T16:13:14.692Z,0.00
2024-05-09T16:15:43.254Z,0.30
2024-05-09T16:18:15.532Z,0.30
2024-05-09T16:20:44.733Z,0.38
2024-05-09T16:23:15.647Z,0.40
2024-05-09T16:25:45.314Z,0.45
2024-05-09T16:28:15.016Z,0.50
2024-05-09T16:30:42.138Z,0.38
2024-05-09T16:33:11.807Z,0.40
2024-05-09T16:35:41.426Z,0.00
2024-05-09T16:38:10.772Z,0.38
2024-05-09T16:40:40.419Z,0.45
2024-05-09T16:43:11.192Z,0.40
2024-05-09T16:45:39.504Z,0.30
2024-05-09T16:48:10.061Z,0.40
2024-05-09T16:50:38.335Z,0.30
2024-05-09T16:53:10.373Z,0.30
2024-05-09T16:55:37.211Z,0.47
2024-05-09T16:58:08.227Z,0.40
2024-05-09T17:00:41.074Z,0.40
2024-05-09T17:03:15.315Z,0.43
2024-05-09T17:05:43.378Z,0.30
2024-05-09T17:08:15.657Z,0.40
2024-05-09T17:10:42.741Z,0.40
2024-05-09T17:13:12.563Z,0.40
2024-05-09T17:15:41.955Z,0.47
2024-05-09T17:18:11.466Z,0.40
2024-05-09T17:20:38.334Z,0.40
2024-05-09T17:23:13.112Z,0.40
2024-05-09T17:25:43.529Z,0.38
2024-05-09T17:28:13.441Z,0.40
2024-05-09T17:30:41.954Z,0.32
2024-05-09T17:33:13.260Z,0.38
2024-05-09T17:35:40.643Z,0.43
2024-05-09T17:38:10.443Z,0.30
2024-05-09T17:40:38.602Z,0.32
2024-05-09T17:43:11.779Z,0.45
2024-05-09T17:45:40.060Z,0.60
2024-05-09T17:48:11.925Z,0.30
2024-05-09T17:50:39.943Z,0.32
2024-05-09T17:53:10.821Z,0.30
2024-05-09T17:55:38.179Z,0.40
2024-05-09T17:58:07.992Z,0.43
2024-05-09T18:00:40.610Z,0.38
2024-05-09T18:03:13.926Z,0.40
2024-05-09T18:08:11.825Z,0.45
2024-05-09T18:10:40.480Z,0.38
2024-05-09T18:13:10.359Z,0.60
2024-05-09T18:15:40.460Z,0.50
2024-05-09T18:18:10.821Z,0.47
2024-05-09T18:20:43.791Z,0.50
2024-05-09T18:23:17.094Z,0.65
2024-05-09T18:25:45.241Z,0.40
2024-05-09T18:28:14.944Z,0.50
2024-05-09T18:30:44.581Z,0.47
2024-05-09T18:33:14.284Z,0.50
2024-05-09T18:35:42.965Z,0.35
2024-05-09T18:38:12.557Z,0.47
2024-05-09T18:40:41.061Z,0.50
2024-05-09T18:43:12.368Z,0.40
2024-05-09T18:45:39.670Z,0.57
2024-05-09T18:48:12.420Z,0.40
2024-05-09T18:50:41.071Z,0.40
2024-05-09T18:53:20.081Z,0.10
2024-05-09T18:55:46.804Z,0.10
2024-05-09T18:58:17.253Z,0.20
2024-05-09T19:00:46.658Z,0.10
2024-05-09T19:03:18.781Z,0.10
2024-05-09T19:05:46.507Z,0.10
2024-05-09T19:08:16.540Z,0.10
2024-05-09T19:10:46.413Z,0.10
2024-05-09T19:13:16.521Z,0.10
2024-05-09T19:15:44.362Z,0.15
2024-05-09T19:18:15.210Z,0.10
2024-05-09T19:20:42.775Z,0.20
2024-05-09T19:23:12.924Z,0.10
2024-05-09T19:25:39.862Z,0.10
2024-05-09T19:28:12.000Z,0.13
2024-05-09T19:30:41.840Z,0.10
2024-05-09T19:33:13.516Z,0.10
2024-05-09T19:35:41.143Z,0.10
2024-05-09T19:38:10.592Z,0.10
2024-05-09T19:40:37.404Z,0.10
2024-05-09T19:43:07.475Z,0.20
2024-05-09T19:45:37.023Z,0.10
2024-05-09T19:48:07.127Z,0.10
2024-05-09T19:50:41.366Z,0.15
2024-05-09T19:53:14.213Z,0.13
2024-05-09T19:55:41.690Z,0.20
2024-05-09T19:58:12.295Z,0.10
2024-05-09T20:00:43.829Z,0.22
2024-05-09T20:03:15.566Z,0.10
2024-05-09T20:05:44.669Z,0.10
2024-05-09T20:08:14.519Z,0.10
2024-05-09T20:10:41.432Z,0.20
2024-05-09T20:13:10.870Z,0.10
2024-05-09T20:15:38.270Z,0.10
2024-05-09T20:18:10.894Z,0.10
2024-05-09T20:20:41.670Z,0.25
2024-05-09T20:23:13.732Z,0.32
2024-05-09T20:25:40.861Z,0.20
2024-05-09T20:28:10.989Z,0.20
2024-05-09T20:30:38.286Z,0.10
2024-05-09T20:33:10.721Z,0.20
2024-05-09T20:35:37.842Z,0.20
2024-05-09T20:38:07.758Z,0.15
2024-05-09T20:40:37.835Z,0.10
2024-05-09T20:43:08.920Z,0.10
2024-05-09T20:45:36.430Z,0.10
2024-05-09T20:48:06.234Z,0.20
2024-05-09T20:50:39.875Z,0.10
2024-05-09T20:53:13.192Z,0.20
2024-05-09T20:55:41.250Z,0.15
2024-05-09T20:58:11.018Z,0.20
2024-05-09T21:00:41.942Z,0.20
2024-05-09T21:03:16.370Z,0.13
2024-05-09T21:05:47.441Z,0.20
2024-05-09T21:08:17.666Z,0.20
2024-05-09T21:10:44.603Z,0.20
2024-05-09T21:13:14.194Z,0.20
2024-05-09T21:15:41.323Z,0.10
2024-05-09T21:18:11.118Z,0.20
2024-05-09T21:20:38.148Z,0.10
2024-05-09T21:23:10.464Z,0.15
2024-05-09T21:25:37.716Z,0.20
2024-05-09T21:28:07.575Z,0.10
2024-05-09T21:30:41.328Z,0.10
2024-05-09T21:33:14.238Z,0.20
2024-05-09T21:35:42.301Z,0.13
2024-05-09T21:38:15.050Z,0.20
2024-05-09T21:40:42.780Z,0.10
2024-05-09T21:43:12.514Z,0.13
2024-05-09T21:45:39.475Z,0.20
2024-05-09T21:48:10.164Z,0.17
2024-05-09T21:50:40.952Z,0.22
2024-05-09T21:53:14.354Z,0.20
2024-05-09T21:55:41.411Z,0.13
2024-05-09T21:58:10.907Z,0.20
2024-05-09T22:00:39.586Z,0.30
2024-05-09T22:03:10.913Z,0.10
2024-05-09T22:05:42.150Z,0.20
2024-05-09T22:08:14.620Z,0.30
2024-05-09T22:10:41.822Z,0.15
2024-05-09T22:13:11.611Z,0.10
2024-05-09T22:15:40.321Z,0.15
2024-05-09T22:18:11.477Z,0.20
2024-05-09T22:20:44.650Z,0.10
2024-05-09T22:23:18.139Z,0.13
2024-05-09T22:25:45.055Z,0.10
2024-05-09T22:28:16.148Z,0.10
2024-05-09T22:30:45.624Z,0.30
2024-05-09T22:33:15.674Z,0.20
2024-05-09T22:35:42.651Z,0.20
2024-05-09T22:38:12.081Z,0.15
2024-05-09T22:40:47.470Z,0.20
2024-05-09T22:43:24.525Z,0.17
2024-05-09T22:45:52.408Z,0.20
2024-05-09T22:48:23.395Z,0.30
2024-05-09T22:50:50.502Z,0.20
2024-05-09T22:53:20.409Z,0.17
2024-05-09T22:55:50.035Z,0.20
2024-05-09T22:58:20.801Z,0.20
2024-05-09T23:00:48.044Z,0.20
2024-05-09T23:03:20.834Z,0.10
2024-05-09T23:05:50.720Z,0.20
2024-05-09T23:08:20.263Z,0.10
2024-05-09T23:10:49.994Z,0.20
2024-05-09T23:13:19.717Z,0.25
2024-05-09T23:15:46.703Z,0.20
2024-05-09T23:18:19.401Z,0.25
2024-05-09T23:20:46.252Z,0.20
2024-05-09T23:23:15.655Z,0.17
2024-05-09T23:25:42.451Z,0.20
2024-05-09T23:28:14.697Z,0.20
2024-05-09T23:30:42.229Z,0.13
2024-05-09T23:33:13.803Z,0.20
2024-05-09T23:35:41.890Z,0.30
2024-05-09T23:38:11.454Z,0.20
2024-05-09T23:40:40.826Z,0.10
2024-05-09T23:43:14.233Z,0.10
2024-05-09T23:45:41.800Z,0.15
2024-05-09T23:48:12.126Z,0.10
2024-05-09T23:50:40.392Z,0.20
2024-05-09T23:53:11.182Z,0.10
2024-05-09T23:55:38.617Z,0.28
2024-05-09T23:58:08.849Z,0.20
